Time;durP1;ratioP1;P1;durP2;ratioP2;P2;SDS_P1;SDS_P2;PMS_P1;PMS_P2;Temp;Humidity;BMP_temperature;BMP_pressure;BME280_temperature;BME280_humidity;BME280_pressure;Samples;Min_cycle;Max_cycle;Signal;HPM_P1;HPM_P2
2022/08/05 00:02:56;;;;;;;8.65;5.68;;;25.80;62.30;;;;;;7689035;22;80696;-70
2022/08/05 00:05:57;;;;;;;11.00;6.00;;;25.70;62.30;;;;;;7689161;22;80380;-70
2022/08/05 00:08:59;;;;;;;10.27;6.18;;;25.70;62.30;;;;;;7688688;22;80333;-69
2022/08/05 00:11:59;;;;;;;10.35;5.97;;;25.70;62.30;;;;;;7688379;22;80396;-70
2022/08/05 00:15:00;;;;;;;10.80;6.10;;;25.70;62.40;;;;;;7689004;22;80332;-70
2022/08/05 00:18:00;;;;;;;7.53;5.43;;;25.70;62.40;;;;;;7687614;22;80207;-70
2022/08/05 00:21:01;;;;;;;12.48;5.97;;;25.70;62.50;;;;;;7689008;22;80224;-69
2022/08/05 00:24:01;;;;;;;9.13;5.47;;;25.70;62.50;;;;;;7688541;22;80451;-70
2022/08/05 00:27:02;;;;;;;13.00;5.90;;;25.70;62.50;;;;;;7688646;22;80399;-69
2022/08/05 00:30:02;;;;;;;13.02;5.32;;;25.70;62.40;;;;;;7688590;22;80387;-68
2022/08/05 00:33:03;;;;;;;8.70;5.97;;;25.70;62.30;;;;;;7686200;22;80457;-68
2022/08/05 00:36:03;;;;;;;7.75;5.55;;;25.70;63.00;;;;;;7688203;22;80765;-68
2022/08/05 00:39:04;;;;;;;9.25;5.63;;;25.70;62.30;;;;;;7688147;22;80281;-68
2022/08/05 00:42:04;;;;;;;9.40;5.80;;;25.70;62.30;;;;;;7688135;22;82520;-68
2022/08/05 00:45:05;;;;;;;10.50;6.28;;;25.70;62.40;;;;;;7688953;22;80365;-68
2022/08/05 00:48:05;;;;;;;11.27;4.70;;;25.70;62.30;;;;;;7688812;22;79859;-69
2022/08/05 00:51:06;;;;;;;9.77;5.63;;;25.70;62.20;;;;;;7688473;22;80774;-68
2022/08/05 00:54:06;;;;;;;11.32;5.57;;;25.70;62.40;;;;;;7688102;22;80076;-69
2022/08/05 00:57:07;;;;;;;9.23;5.82;;;25.70;62.30;;;;;;7688460;22;80804;-69
2022/08/05 01:00:08;;;;;;;10.20;5.25;;;25.70;62.40;;;;;;7688164;22;80734;-70
2022/08/05 01:03:09;;;;;;;10.90;6.68;;;25.70;62.30;;;;;;7688317;22;81092;-69
2022/08/05 01:06:10;;;;;;;7.30;4.80;;;25.70;62.30;;;;;;7688075;22;80348;-69
2022/08/05 01:09:10;;;;;;;8.93;5.63;;;25.60;62.30;;;;;;7686720;22;81268;-69
2022/08/05 01:12:11;;;;;;;14.73;5.93;;;25.60;62.20;;;;;;7688241;22;80305;-70
2022/08/05 01:15:11;;;;;;;9.63;5.13;;;25.60;62.10;;;;;;7688477;22;80534;-69
2022/08/05 01:18:12;;;;;;;8.88;5.68;;;25.60;62.10;;;;;;7688366;22;80646;-69
2022/08/05 01:21:12;;;;;;;8.82;6.45;;;25.60;62.20;;;;;;7686861;22;83401;-70
2022/08/05 01:24:13;;;;;;;10.43;6.68;;;25.60;62.20;;;;;;7688160;22;81390;-70
2022/08/05 01:27:14;;;;;;;13.13;7.13;;;25.60;62.60;;;;;;7686288;22;81754;-69
2022/08/05 01:30:14;;;;;;;9.35;6.90;;;25.60;61.70;;;;;;7688105;22;80171;-69
2022/08/05 01:33:14;;;;;;;9.15;7.32;;;25.60;61.50;;;;;;7688140;22;80334;-68
2022/08/05 01:36:15;;;;;;;11.38;7.57;;;25.60;61.40;;;;;;7688190;22;80305;-69
2022/08/05 01:39:16;;;;;;;13.30;6.55;;;25.60;61.20;;;;;;7687452;22;80486;-69
2022/08/05 01:42:16;;;;;;;12.95;6.72;;;25.60;61.30;;;;;;7687853;22;81797;-69
2022/08/05 01:45:17;;;;;;;11.00;6.68;;;25.60;61.20;;;;;;7688179;22;80709;-70
2022/08/05 01:48:17;;;;;;;12.70;7.35;;;25.50;61.30;;;;;;7687686;22;80987;-71
2022/08/05 01:51:17;;;;;;;8.07;5.72;;;25.50;61.40;;;;;;7687173;22;80318;-69
2022/08/05 01:54:18;;;;;;;11.07;5.60;;;25.50;61.40;;;;;;7687437;22;80814;-71
2022/08/05 01:57:18;;;;;;;9.52;5.80;;;25.50;61.40;;;;;;7687889;22;83062;-71
2022/08/05 02:00:19;;;;;;;10.18;5.88;;;25.50;61.50;;;;;;7689688;22;80427;-71
2022/08/05 02:03:19;;;;;;;14.48;6.00;;;25.50;61.50;;;;;;7689416;22;87022;-70
2022/08/05 02:06:20;;;;;;;9.70;5.65;;;25.50;61.50;;;;;;7689909;22;80648;-70
2022/08/05 02:09:20;;;;;;;8.65;5.65;;;25.50;61.60;;;;;;7687447;22;81420;-71
2022/08/05 02:12:21;;;;;;;9.13;5.05;;;25.50;61.60;;;;;;7689988;22;80024;-73
2022/08/05 02:15:21;;;;;;;6.85;5.30;;;25.50;61.70;;;;;;7689835;22;80382;-71
2022/08/05 02:18:22;;;;;;;10.40;6.25;;;25.50;61.70;;;;;;7689715;22;81211;-71
2022/08/05 02:21:22;;;;;;;7.32;6.00;;;25.50;61.60;;;;;;7690434;22;79970;-73
2022/08/05 02:24:23;;;;;;;9.25;6.18;;;25.50;61.40;;;;;;7689358;22;81213;-71
2022/08/05 02:27:23;;;;;;;11.27;6.00;;;25.50;61.30;;;;;;7689575;22;80104;-71
2022/08/05 02:30:24;;;;;;;11.45;5.57;;;25.40;61.30;;;;;;7689514;22;80058;-67
2022/08/05 02:33:25;;;;;;;11.00;6.45;;;25.40;61.30;;;;;;7688931;22;80155;-67
2022/08/05 02:36:25;;;;;;;10.85;6.13;;;25.50;61.30;;;;;;7689728;22;80561;-69
2022/08/05 02:39:25;;;;;;;7.78;5.43;;;25.50;61.40;;;;;;7689061;22;79925;-69
2022/08/05 02:42:26;;;;;;;8.85;5.95;;;25.50;61.10;;;;;;7689549;22;81152;-69
2022/08/05 02:45:26;;;;;;;19.60;6.60;;;25.50;61.00;;;;;;7689192;22;80637;-69
2022/08/05 02:48:27;;;;;;;13.38;7.28;;;25.50;60.90;;;;;;7689160;22;81012;-69
2022/08/05 02:51:27;;;;;;;7.50;5.53;;;25.50;61.10;;;;;;7688766;22;81779;-68
2022/08/05 02:54:28;;;;;;;17.38;6.18;;;25.40;61.70;;;;;;7689397;22;80169;-67
2022/08/05 02:57:28;;;;;;;8.48;6.20;;;25.40;61.00;;;;;;7688951;22;80314;-68
2022/08/05 03:00:29;;;;;;;12.70;6.95;;;25.40;61.00;;;;;;7689335;22;80563;-69
2022/08/05 03:03:29;;;;;;;10.38;6.10;;;25.40;60.80;;;;;;7687553;22;80602;-69
2022/08/05 03:06:30;;;;;;;10.35;5.88;;;25.40;60.70;;;;;;7688848;22;80457;-68
2022/08/05 03:09:30;;;;;;;14.43;7.68;;;25.40;60.70;;;;;;7688207;22;80212;-67
2022/08/05 03:12:31;;;;;;;13.02;6.15;;;25.40;60.70;;;;;;7688778;22;80634;-69
2022/08/05 03:15:31;;;;;;;9.32;6.55;;;25.40;60.70;;;;;;7688754;22;80720;-68
2022/08/05 03:18:32;;;;;;;9.95;5.95;;;25.40;60.80;;;;;;7688742;22;80488;-68
2022/08/05 03:21:32;;;;;;;8.48;5.75;;;25.30;60.70;;;;;;7688851;22;80095;-67
2022/08/05 03:24:33;;;;;;;12.05;6.50;;;25.30;60.60;;;;;;7688989;22;80178;-68
2022/08/05 03:27:33;;;;;;;11.48;5.70;;;25.40;60.70;;;;;;7688715;22;80337;-68
2022/08/05 03:30:34;;;;;;;9.43;6.05;;;25.40;60.40;;;;;;7688772;22;80223;-70
2022/08/05 03:33:34;;;;;;;12.65;6.22;;;25.30;60.30;;;;;;7688770;22;86568;-69
2022/08/05 03:36:35;;;;;;;9.73;6.22;;;25.30;60.30;;;;;;7689646;22;80040;-70
2022/08/05 03:39:36;;;;;;;10.15;6.10;;;25.30;60.50;;;;;;7689398;22;80203;-71
2022/08/05 03:42:36;;;;;;;13.07;5.95;;;25.20;60.50;;;;;;7689007;22;80161;-71
2022/08/05 03:45:37;;;;;;;9.82;6.25;;;25.20;60.60;;;;;;7689075;22;80574;-71
2022/08/05 03:48:37;;;;;;;10.65;6.50;;;25.30;60.70;;;;;;7689133;22;80027;-70
2022/08/05 03:51:38;;;;;;;12.20;6.63;;;25.30;60.80;;;;;;7687846;22;80638;-69
2022/08/05 03:54:38;;;;;;;11.18;6.75;;;25.20;60.70;;;;;;7688889;22;80737;-69
2022/08/05 03:57:39;;;;;;;9.10;5.50;;;25.20;60.80;;;;;;7688721;22;81443;-69
2022/08/05 04:00:39;;;;;;;9.52;6.07;;;25.20;60.90;;;;;;7687714;22;80266;-67
2022/08/05 04:03:40;;;;;;;17.08;6.70;;;25.20;61.00;;;;;;7688370;22;81354;-68
2022/08/05 04:06:40;;;;;;;11.35;6.13;;;25.30;61.10;;;;;;7688673;22;80461;-67
2022/08/05 04:09:41;;;;;;;8.48;5.70;;;25.20;61.20;;;;;;7688279;22;80406;-69
2022/08/05 04:12:41;;;;;;;10.82;6.10;;;25.30;61.20;;;;;;7688951;22;80755;-70
2022/08/05 04:15:42;;;;;;;11.85;6.63;;;25.30;61.10;;;;;;7688406;22;80690;-70
2022/08/05 04:18:42;;;;;;;7.80;5.65;;;25.30;61.00;;;;;;7688013;22;80208;-69
2022/08/05 04:21:43;;;;;;;10.55;6.18;;;25.30;61.00;;;;;;7687959;22;80020;-68
2022/08/05 04:24:43;;;;;;;13.98;6.05;;;25.30;61.00;;;;;;7687419;22;81637;-68
2022/08/05 04:27:44;;;;;;;10.52;7.00;;;25.30;61.10;;;;;;7687397;22;80146;-70
2022/08/05 04:30:44;;;;;;;8.88;5.50;;;25.30;61.10;;;;;;7686866;22;80278;-67
2022/08/05 04:33:45;;;;;;;11.15;5.85;;;25.40;61.10;;;;;;7685895;22;80325;-67
2022/08/05 04:36:45;;;;;;;10.98;6.60;;;25.40;61.00;;;;;;7685906;22;80327;-67
2022/08/05 04:39:46;;;;;;;11.05;7.13;;;25.50;60.90;;;;;;7686290;22;80761;-67
2022/08/05 04:42:46;;;;;;;9.98;6.18;;;25.50;60.90;;;;;;7687073;22;80466;-65
2022/08/05 04:45:46;;;;;;;7.72;5.25;;;25.50;60.70;;;;;;7686548;22;80502;-66
2022/08/05 04:48:47;;;;;;;12.15;6.13;;;25.50;60.60;;;;;;7687454;22;80266;-70
2022/08/05 04:51:47;;;;;;;11.70;5.75;;;25.50;60.70;;;;;;7687472;22;81368;-70
2022/08/05 04:54:48;;;;;;;7.68;5.93;;;25.50;60.90;;;;;;7685469;22;81510;-67
2022/08/05 04:57:48;;;;;;;9.95;5.70;;;25.50;60.90;;;;;;7686604;22;80283;-66
2022/08/05 05:00:49;;;;;;;11.50;6.45;;;25.50;61.00;;;;;;7686580;22;80348;-67
2022/08/05 05:03:50;;;;;;;11.68;5.65;;;25.50;60.70;;;;;;7686627;22;80373;-66
2022/08/05 05:06:50;;;;;;;11.43;5.78;;;25.60;60.60;;;;;;7685800;22;80874;-65
2022/08/05 05:09:51;;;;;;;25.42;6.35;;;25.50;60.40;;;;;;7684918;22;80235;-66
2022/08/05 05:12:51;;;;;;;10.32;5.38;;;25.60;60.60;;;;;;7686169;22;80847;-66
2022/08/05 05:15:52;;;;;;;10.40;6.20;;;25.60;60.60;;;;;;7686633;22;81802;-66
2022/08/05 05:18:52;;;;;;;10.07;5.75;;;25.60;60.40;;;;;;7686181;22;80646;-67
2022/08/05 05:21:52;;;;;;;13.55;5.43;;;25.60;60.40;;;;;;7686444;22;80364;-66
2022/08/05 05:24:53;;;;;;;12.35;6.32;;;25.70;60.50;;;;;;7686112;22;80476;-66
2022/08/05 05:27:54;;;;;;;9.45;5.43;;;25.70;60.30;;;;;;7686142;22;80461;-66
2022/08/05 05:30:54;;;;;;;11.15;6.60;;;25.60;60.50;;;;;;7686226;22;81329;-67
2022/08/05 05:33:55;;;;;;;9.77;6.45;;;25.60;61.10;;;;;;7687678;22;80211;-67
2022/08/05 05:36:55;;;;;;;13.15;5.57;;;25.70;61.10;;;;;;7687777;22;80114;-67
2022/08/05 05:39:56;;;;;;;24.08;9.00;;;25.70;60.90;;;;;;7687837;22;80466;-70
2022/08/05 05:42:56;;;;;;;16.77;8.05;;;25.70;61.10;;;;;;7687895;22;80803;-67
2022/08/05 05:45:57;;;;;;;14.02;8.13;;;25.70;61.00;;;;;;7686171;22;80389;-65
2022/08/05 05:48:57;;;;;;;11.25;6.63;;;25.70;61.20;;;;;;7687698;22;80166;-65
2022/08/05 05:51:58;;;;;;;9.70;6.55;;;25.70;61.50;;;;;;7688081;22;81396;-65
2022/08/05 05:54:59;;;;;;;9.75;6.80;;;25.70;61.50;;;;;;7687507;22;80848;-65
2022/08/05 05:58:00;;;;;;;12.75;6.47;;;25.80;61.60;;;;;;7687902;22;81958;-66
2022/08/05 06:01:00;;;;;;;14.35;6.30;;;25.80;61.10;;;;;;7687722;22;80384;-65
2022/08/05 06:04:01;;;;;;;7.85;5.53;;;25.80;61.00;;;;;;7688161;22;80058;-74
2022/08/05 06:07:01;;;;;;;15.52;7.63;;;25.70;61.10;;;;;;7688240;22;80613;-65
2022/08/05 06:10:02;;;;;;;16.20;6.47;;;25.80;61.10;;;;;;7687648;22;81547;-66
2022/08/05 06:13:03;;;;;;;30.58;8.30;;;25.90;61.50;;;;;;7687934;22;80441;-64
2022/08/05 06:16:04;;;;;;;13.82;6.28;;;25.90;61.40;;;;;;7687513;22;80637;-65
2022/08/05 06:19:04;;;;;;;13.43;6.13;;;25.90;61.70;;;;;;7688498;22;80292;-77
2022/08/05 06:22:05;;;;;;;11.68;5.85;;;26.00;61.80;;;;;;7690454;22;80389;-71
2022/08/05 06:25:07;;;;;;;12.88;5.97;;;25.90;61.70;;;;;;7688664;22;80055;-62
2022/08/05 06:28:08;;;;;;;17.40;5.93;;;25.90;61.70;;;;;;7685730;22;82037;-69
2022/08/05 06:31:08;;;;;;;11.88;5.95;;;26.00;61.70;;;;;;7687813;22;80284;-67
2022/08/05 06:34:08;;;;;;;14.13;5.78;;;26.00;61.70;;;;;;7687301;22;81733;-65
2022/08/05 06:37:09;;;;;;;16.05;6.40;;;26.00;61.90;;;;;;7687744;22;80276;-66
2022/08/05 06:40:09;;;;;;;9.30;5.63;;;26.00;62.10;;;;;;7687056;22;81607;-65
2022/08/05 06:43:10;;;;;;;10.38;5.43;;;26.00;62.20;;;;;;7687567;22;80155;-67
2022/08/05 06:46:10;;;;;;;14.50;5.32;;;25.90;62.20;;;;;;7686714;22;80419;-67
2022/08/05 06:49:11;;;;;;;16.05;6.80;;;26.00;62.20;;;;;;7687482;22;80517;-66
2022/08/05 06:52:12;;;;;;;8.75;5.60;;;26.00;62.20;;;;;;7687911;22;80587;-67
2022/08/05 06:55:12;;;;;;;16.52;6.80;;;26.00;62.30;;;;;;7688117;22;80447;-66
2022/08/05 06:58:12;;;;;;;12.27;5.43;;;25.90;62.30;;;;;;7687818;22;80335;-66
2022/08/05 07:01:13;;;;;;;12.27;5.43;;;25.90;62.30;;;;;;7688493;22;80016;-67
2022/08/05 07:04:13;;;;;;;9.63;5.68;;;25.90;62.30;;;;;;7687547;22;80383;-66
2022/08/05 07:07:14;;;;;;;9.43;5.65;;;26.00;62.40;;;;;;7687663;22;80662;-65
2022/08/05 07:10:14;;;;;;;9.02;5.25;;;26.00;62.50;;;;;;7687324;22;87087;-66
2022/08/05 07:16:49;;;;;;;12.75;6.00;;;26.00;62.60;;;;;;7687863;22;80657;-66
2022/08/05 07:19:52;;;;;;;11.45;5.82;;;25.90;62.60;;;;;;7688030;22;80366;-66
2022/08/05 07:22:53;;;;;;;9.93;5.10;;;26.00;62.70;;;;;;7687982;22;80347;-67
2022/08/05 07:25:53;;;;;;;7.05;5.03;;;26.00;62.80;;;;;;7687951;22;80547;-66
2022/08/05 07:28:54;;;;;;;8.80;5.13;;;26.00;62.80;;;;;;7687750;22;80207;-65
2022/08/05 07:31:54;;;;;;;8.55;5.47;;;25.90;62.80;;;;;;7688154;22;80169;-66
2022/08/05 07:34:55;;;;;;;6.32;5.15;;;26.00;62.90;;;;;;7687880;22;80279;-66
2022/08/05 07:37:55;;;;;;;10.77;5.18;;;26.00;63.00;;;;;;7687720;22;80277;-65
2022/08/05 07:40:56;;;;;;;9.13;5.00;;;26.00;63.00;;;;;;7687580;22;80934;-65
2022/08/05 07:43:56;;;;;;;9.45;5.22;;;26.00;62.90;;;;;;7687561;22;80141;-65
2022/08/05 07:46:57;;;;;;;8.27;4.88;;;26.00;62.90;;;;;;7687619;22;80411;-66
2022/08/05 07:49:57;;;;;;;6.78;4.85;;;26.10;62.90;;;;;;7687377;22;80256;-66
2022/08/05 07:52:58;;;;;;;8.50;5.13;;;26.00;62.80;;;;;;7686861;22;80220;-66
2022/08/05 07:55:58;;;;;;;10.60;5.65;;;26.10;63.00;;;;;;7687578;22;80326;-66
2022/08/05 07:58:59;;;;;;;8.80;5.20;;;26.10;63.00;;;;;;7687407;22;80600;-67
2022/08/05 08:02:01;;;;;;;7.18;4.43;;;26.00;63.00;;;;;;7687221;22;80226;-67
2022/08/05 08:05:01;;;;;;;7.35;4.95;;;26.10;63.30;;;;;;7687301;22;80352;-66
2022/08/05 08:08:02;;;;;;;7.80;4.88;;;26.10;63.30;;;;;;7687354;22;80589;-66
2022/08/05 08:11:02;;;;;;;10.05;5.20;;;26.10;63.40;;;;;;7687067;22;80121;-66
2022/08/05 08:14:03;;;;;;;7.70;4.88;;;26.10;63.40;;;;;;7687483;22;80765;-66
2022/08/05 08:17:03;;;;;;;9.02;4.82;;;26.10;63.50;;;;;;7687209;22;80213;-66
2022/08/05 08:20:05;;;;;;;8.95;5.35;;;26.10;63.60;;;;;;7687184;22;80044;-67
2022/08/05 08:23:06;;;;;;;9.43;5.53;;;26.10;63.70;;;;;;7687990;22;80371;-66
2022/08/05 08:26:06;;;;;;;9.00;5.32;;;26.10;63.70;;;;;;7688151;22;80323;-66
2022/08/05 08:29:07;;;;;;;12.38;5.40;;;26.20;63.80;;;;;;7688278;22;80323;-69
2022/08/05 08:32:08;;;;;;;12.85;4.63;;;26.10;63.80;;;;;;7688011;22;80330;-67
2022/08/05 08:35:08;;;;;;;9.52;5.93;;;26.20;64.00;;;;;;7687920;22;80445;-66
2022/08/05 08:38:09;;;;;;;7.53;5.15;;;26.20;64.00;;;;;;7687171;22;80283;-67
2022/08/05 08:41:09;;;;;;;8.35;5.25;;;26.20;64.00;;;;;;7686885;22;80393;-67
2022/08/05 08:44:10;;;;;;;7.93;5.15;;;26.20;64.00;;;;;;7687054;22;81096;-68
2022/08/05 08:47:10;;;;;;;7.00;4.57;;;26.30;64.10;;;;;;7687395;22;80250;-67
2022/08/05 08:50:11;;;;;;;9.30;6.00;;;26.20;64.10;;;;;;7687278;22;80408;-67
2022/08/05 08:53:11;;;;;;;8.10;4.45;;;26.30;64.20;;;;;;7687156;22;80385;-67
2022/08/05 08:56:12;;;;;;;6.75;4.53;;;26.20;64.00;;;;;;7687269;22;80576;-67
2022/08/05 08:59:12;;;;;;;8.90;5.30;;;26.30;63.80;;;;;;7687160;22;80253;-67
2022/08/05 09:02:13;;;;;;;5.88;4.50;;;26.30;64.10;;;;;;7687106;22;80799;-67
2022/08/05 09:05:14;;;;;;;5.10;4.55;;;26.30;64.10;;;;;;7686426;22;80278;-66
2022/08/05 09:08:16;;;;;;;7.82;4.53;;;26.30;63.90;;;;;;7686978;22;81344;-66
2022/08/05 09:11:16;;;;;;;5.85;4.45;;;26.30;64.00;;;;;;7687157;22;80272;-65
2022/08/05 09:14:17;;;;;;;6.38;4.93;;;26.30;63.90;;;;;;7687000;22;81068;-67
2022/08/05 09:17:17;;;;;;;7.03;4.07;;;26.40;63.70;;;;;;7685304;22;80373;-66
2022/08/05 09:20:18;;;;;;;12.40;4.93;;;26.30;63.80;;;;;;7687178;22;80279;-66
2022/08/05 09:23:19;;;;;;;7.35;5.00;;;26.40;63.90;;;;;;7686946;22;80246;-66
2022/08/05 09:26:20;;;;;;;7.35;4.78;;;26.40;63.80;;;;;;7687354;22;80478;-66
2022/08/05 09:29:20;;;;;;;7.47;5.00;;;26.40;63.80;;;;;;7686960;22;80322;-66
2022/08/05 09:32:21;;;;;;;5.53;4.68;;;26.40;63.80;;;;;;7687147;22;80139;-66
2022/08/05 09:35:21;;;;;;;7.80;4.47;;;26.40;63.70;;;;;;7687142;22;80196;-66
2022/08/05 09:38:22;;;;;;;5.80;4.28;;;26.40;63.90;;;;;;7686984;22;80810;-66
2022/08/05 09:41:22;;;;;;;6.18;5.00;;;26.40;63.80;;;;;;7687162;22;80530;-66
2022/08/05 09:44:23;;;;;;;7.63;4.53;;;26.40;63.70;;;;;;7686775;22;79882;-66
2022/08/05 09:47:23;;;;;;;5.53;4.18;;;26.40;63.80;;;;;;7686837;22;80095;-65
2022/08/05 09:50:24;;;;;;;8.80;4.60;;;26.40;63.70;;;;;;7686974;22;81381;-66
2022/08/05 09:53:24;;;;;;;6.97;4.95;;;26.40;63.80;;;;;;7686732;22;80267;-66
2022/08/05 09:56:25;;;;;;;7.95;4.32;;;26.40;63.70;;;;;;7686910;22;85780;-66
2022/08/05 09:59:25;;;;;;;6.15;4.70;;;26.40;63.60;;;;;;7687460;22;80318;-66
2022/08/05 10:02:26;;;;;;;5.15;4.30;;;26.40;63.30;;;;;;7686795;22;80267;-66
2022/08/05 10:05:26;;;;;;;9.50;4.15;;;26.50;64.10;;;;;;7687075;22;80336;-66
2022/08/05 10:08:27;;;;;;;7.57;4.90;;;26.50;63.40;;;;;;7686346;22;80413;-66
2022/08/05 10:11:27;;;;;;;7.30;4.43;;;26.50;63.50;;;;;;7686188;22;80821;-66
2022/08/05 10:14:28;;;;;;;6.35;4.50;;;26.50;63.40;;;;;;7686071;22;80459;-66
2022/08/05 10:17:28;;;;;;;4.78;4.25;;;26.50;63.50;;;;;;7685635;22;81823;-66
2022/08/05 10:20:29;;;;;;;12.73;4.22;;;26.50;63.40;;;;;;7687738;22;82374;-65
2022/08/05 10:23:29;;;;;;;6.78;4.53;;;26.50;63.50;;;;;;7687898;22;80491;-67
2022/08/05 10:26:30;;;;;;;5.03;4.30;;;26.50;63.30;;;;;;7687962;22;79981;-66
2022/08/05 10:29:35;;;;;;;5.20;4.28;;;26.50;63.60;;;;;;7688264;22;81067;-66
2022/08/05 10:32:36;;;;;;;6.22;4.38;;;26.50;63.50;;;;;;7688114;22;80910;-66
2022/08/05 10:35:36;;;;;;;7.88;3.97;;;26.50;63.90;;;;;;7688081;22;80183;-67
2022/08/05 10:38:37;;;;;;;7.47;4.95;;;26.50;63.20;;;;;;7687953;22;80343;-67
2022/08/05 10:41:37;;;;;;;6.22;5.00;;;26.50;63.20;;;;;;7688061;22;80334;-67
2022/08/05 10:44:38;;;;;;;5.47;4.47;;;26.60;63.20;;;;;;7686014;22;80157;-66
2022/08/05 10:47:43;;;;;;;4.82;4.32;;;26.60;63.00;;;;;;7687892;22;80699;-67
2022/08/05 10:50:43;;;;;;;6.68;4.65;;;26.60;63.00;;;;;;7687750;22;80164;-66
2022/08/05 10:53:44;;;;;;;6.50;4.95;;;26.60;63.00;;;;;;7687330;22;81337;-66
2022/08/05 10:56:44;;;;;;;7.07;4.43;;;26.60;62.90;;;;;;7687777;22;80337;-66
2022/08/05 10:59:45;;;;;;;5.60;4.38;;;26.60;62.80;;;;;;7687638;22;79985;-66
2022/08/05 11:02:45;;;;;;;6.40;4.20;;;26.60;62.80;;;;;;7688236;22;80451;-66
2022/08/05 11:05:46;;;;;;;7.95;4.18;;;26.60;62.60;;;;;;7687506;22;79945;-66
2022/08/05 11:08:46;;;;;;;5.00;4.50;;;26.60;62.60;;;;;;7687731;22;80126;-65
2022/08/05 11:11:48;;;;;;;7.45;4.50;;;26.70;62.60;;;;;;7687336;22;81685;-67
2022/08/05 11:14:48;;;;;;;5.35;4.60;;;26.70;62.50;;;;;;7687909;22;80681;-66
2022/08/05 11:17:49;;;;;;;5.90;4.53;;;26.70;63.00;;;;;;7687720;22;80193;-66
2022/08/05 11:20:52;;;;;;;8.75;5.03;;;26.70;62.20;;;;;;7687925;22;80459;-66
2022/08/05 11:23:53;;;;;;;6.85;4.72;;;26.70;62.20;;;;;;7687736;22;80399;-66
2022/08/05 11:26:53;;;;;;;6.80;4.30;;;26.70;62.20;;;;;;7687245;22;80872;-65
2022/08/05 11:29:54;;;;;;;4.88;4.28;;;26.70;62.20;;;;;;7687466;22;80436;-65
2022/08/05 11:32:54;;;;;;;8.95;4.68;;;26.70;62.20;;;;;;7688257;22;80461;-73
2022/08/05 11:35:55;;;;;;;8.15;4.80;;;26.70;62.40;;;;;;7687543;22;81891;-69
2022/08/05 11:38:55;;;;;;;8.35;4.45;;;26.70;62.60;;;;;;7688308;22;80339;-66
2022/08/05 11:41:55;;;;;;;7.65;4.80;;;26.80;62.80;;;;;;7687937;22;80308;-70
2022/08/05 11:44:56;;;;;;;16.52;5.78;;;26.80;63.00;;;;;;7688676;22;80097;-70
2022/08/05 11:47:57;;;;;;;17.58;6.63;;;26.90;62.10;;;;;;7688517;22;80335;-67
2022/08/05 11:50:58;;;;;;;34.60;8.65;;;27.10;62.50;;;;;;7688051;22;80360;-64
2022/08/05 11:54:01;;;;;;;29.52;7.82;;;27.10;63.00;;;;;;7688608;22;81625;-64
2022/08/05 11:57:02;;;;;;;25.40;9.15;;;27.10;63.40;;;;;;7686705;22;80869;-64
2022/08/05 12:00:02;;;;;;;27.00;8.38;;;27.10;63.60;;;;;;7688258;22;80227;-65
2022/08/05 12:03:12;;;;;;;16.67;7.22;;;27.10;63.30;;;;;;7688331;22;80578;-65
2022/08/05 12:06:12;;;;;;;11.32;5.57;;;27.20;63.00;;;;;;7688421;22;80120;-65
2022/08/05 12:09:13;;;;;;;12.48;6.50;;;27.40;61.00;;;;;;7688257;22;80868;-65
2022/08/05 12:12:13;;;;;;;26.95;6.78;;;27.60;60.30;;;;;;7687870;22;81416;-65
2022/08/05 12:15:14;;;;;;;14.30;6.57;;;27.60;60.80;;;;;;7688209;22;80506;-65
2022/08/05 12:18:14;;;;;;;11.80;5.97;;;27.60;60.50;;;;;;7686010;22;83448;-65
2022/08/05 12:21:15;;;;;;;7.97;5.63;;;27.60;60.00;;;;;;7687711;22;80466;-64
2022/08/05 12:24:16;;;;;;;11.55;5.80;;;27.70;59.70;;;;;;7685913;22;80232;-64
2022/08/05 12:27:16;;;;;;;7.07;5.07;;;27.80;59.60;;;;;;7686017;22;81143;-65
2022/08/05 12:30:17;;;;;;;5.53;4.47;;;27.90;57.50;;;;;;7686382;22;80691;-66
2022/08/05 12:33:18;;;;;;;8.45;5.30;;;28.00;56.80;;;;;;7685913;22;80396;-71
2022/08/05 12:36:18;;;;;;;7.75;4.68;;;28.10;57.40;;;;;;7687266;22;80391;-76
2022/08/05 12:39:19;;;;;;;14.35;5.38;;;28.00;57.40;;;;;;7686750;22;80295;-65
2022/08/05 12:42:19;;;;;;;7.55;4.78;;;28.00;58.10;;;;;;7686266;22;80944;-64
2022/08/05 12:45:20;;;;;;;8.25;5.15;;;28.00;58.60;;;;;;7684955;22;80615;-65
2022/08/05 12:48:20;;;;;;;11.98;5.90;;;27.90;58.40;;;;;;7684674;22;80405;-66
2022/08/05 12:51:21;;;;;;;5.93;5.05;;;27.90;58.80;;;;;;7684914;22;80394;-65
2022/08/05 12:54:21;;;;;;;8.65;5.13;;;27.80;58.80;;;;;;7684840;22;81539;-74
2022/08/05 12:57:22;;;;;;;6.28;4.85;;;27.90;58.80;;;;;;7684749;22;80529;-65
2022/08/05 13:00:22;;;;;;;5.72;4.65;;;27.90;58.80;;;;;;7684599;22;80382;-66
2022/08/05 13:03:22;;;;;;;7.55;4.70;;;27.90;58.90;;;;;;7683709;22;80686;-66
2022/08/05 13:06:23;;;;;;;5.75;4.13;;;27.90;59.00;;;;;;7683919;22;80243;-66
2022/08/05 13:09:23;;;;;;;13.75;5.30;;;28.10;57.50;;;;;;7684108;22;80806;-65
2022/08/05 13:12:24;;;;;;;8.18;5.13;;;28.00;57.40;;;;;;7684476;22;80419;-66
2022/08/05 13:15:24;;;;;;;6.93;4.65;;;28.00;57.40;;;;;;7684363;22;80385;-66
2022/08/05 13:18:25;;;;;;;6.88;4.38;;;28.20;56.10;;;;;;7687908;22;80462;-64
2022/08/05 13:21:26;;;;;;;7.00;4.65;;;28.20;56.40;;;;;;7687913;22;81078;-66
2022/08/05 13:24:26;;;;;;;6.15;4.88;;;28.20;56.70;;;;;;7687711;22;80550;-66
2022/08/05 13:27:27;;;;;;;4.70;4.00;;;28.10;56.80;;;;;;7686934;22;81250;-66
2022/08/05 13:30:27;;;;;;;9.00;5.20;;;28.10;56.60;;;;;;7683530;22;81143;-66
2022/08/05 13:33:28;;;;;;;8.68;5.22;;;28.20;56.40;;;;;;7684612;22;80235;-66
2022/08/05 13:36:28;;;;;;;6.18;4.70;;;28.30;54.50;;;;;;7685431;22;80335;-66
2022/08/05 13:39:29;;;;;;;6.53;4.82;;;28.30;54.70;;;;;;7685714;22;80483;-66
2022/08/05 13:42:29;;;;;;;7.07;4.93;;;28.40;55.70;;;;;;7686415;22;80734;-64
2022/08/05 13:45:30;;;;;;;8.07;4.95;;;28.30;55.70;;;;;;7686698;22;80333;-66
2022/08/05 13:48:30;;;;;;;4.82;4.10;;;28.30;55.40;;;;;;7687463;22;80413;-65
2022/08/05 13:51:31;;;;;;;6.88;4.50;;;28.30;55.30;;;;;;7689368;22;79961;-65
2022/08/05 13:54:31;;;;;;;4.57;3.90;;;28.40;54.90;;;;;;7689381;22;80260;-65
2022/08/05 13:57:32;;;;;;;8.32;4.15;;;28.40;55.00;;;;;;7689057;22;80774;-65
2022/08/05 14:00:35;;;;;;;8.25;4.47;;;28.40;55.10;;;;;;7688515;22;80439;-64
2022/08/05 14:03:35;;;;;;;5.97;4.50;;;28.40;55.20;;;;;;7689012;22;80220;-64
2022/08/05 14:06:36;;;;;;;10.07;5.03;;;28.40;55.30;;;;;;7686147;22;82898;-66
2022/08/05 14:09:38;;;;;;;7.85;4.85;;;28.30;55.30;;;;;;7687384;22;80088;-66
2022/08/05 14:12:38;;;;;;;10.85;5.00;;;28.50;54.50;;;;;;7687974;22;81382;-68
2022/08/05 14:15:39;;;;;;;7.43;5.25;;;28.50;54.70;;;;;;7687591;22;80251;-67
2022/08/05 14:18:39;;;;;;;11.98;4.93;;;28.60;54.80;;;;;;7687833;22;80369;-67
2022/08/05 14:21:40;;;;;;;5.57;4.93;;;28.60;54.70;;;;;;7687911;22;80455;-67
2022/08/05 14:24:40;;;;;;;8.52;5.13;;;28.50;55.40;;;;;;7688069;22;80485;-67
2022/08/05 14:27:41;;;;;;;6.05;4.57;;;28.50;55.80;;;;;;7688150;22;80466;-66
2022/08/05 14:30:41;;;;;;;5.80;4.93;;;28.40;56.20;;;;;;7689054;22;80281;-68
2022/08/05 14:33:41;;;;;;;20.55;4.82;;;28.40;56.30;;;;;;7687089;22;80390;-65
2022/08/05 14:36:42;;;;;;;7.55;5.03;;;28.40;56.90;;;;;;7688775;22;80572;-66
2022/08/05 14:39:42;;;;;;;12.88;4.97;;;28.50;57.20;;;;;;7689076;22;80338;-66
2022/08/05 14:42:43;;;;;;;6.95;4.65;;;28.40;57.10;;;;;;7688463;22;80258;-66
2022/08/05 14:45:43;;;;;;;7.43;4.57;;;28.40;57.40;;;;;;7687569;22;80392;-67
2022/08/05 14:48:44;;;;;;;12.65;5.93;;;28.30;57.80;;;;;;7687739;22;80348;-66
2022/08/05 14:51:45;;;;;;;8.43;5.28;;;28.30;57.90;;;;;;7685402;22;80368;-76
2022/08/05 14:54:45;;;;;;;8.90;5.60;;;28.30;57.70;;;;;;7687850;22;80335;-68
2022/08/05 14:57:46;;;;;;;6.93;5.03;;;28.30;57.80;;;;;;7687508;22;80140;-74
2022/08/05 15:00:46;;;;;;;7.70;5.50;;;28.30;57.70;;;;;;7687237;22;80235;-66
2022/08/05 15:03:47;;;;;;;8.10;5.00;;;28.30;57.70;;;;;;7686909;22;80378;-66
2022/08/05 15:06:47;;;;;;;10.45;5.70;;;28.20;57.50;;;;;;7687655;22;80653;-66
2022/08/05 15:09:48;;;;;;;6.68;4.90;;;28.10;58.50;;;;;;7687362;22;80208;-67
2022/08/05 15:12:48;;;;;;;13.98;6.10;;;28.00;57.70;;;;;;7687047;22;81561;-66
2022/08/05 15:15:49;;;;;;;10.80;5.57;;;28.00;58.20;;;;;;7686633;22;80237;-68
2022/08/05 15:18:49;;;;;;;5.25;4.55;;;28.10;58.60;;;;;;7686801;22;80429;-73
2022/08/05 15:21:50;;;;;;;12.73;5.50;;;28.10;58.10;;;;;;7686489;22;80322;-67
2022/08/05 15:24:50;;;;;;;11.75;5.13;;;28.10;57.90;;;;;;7686187;22;81297;-66
2022/08/05 15:27:51;;;;;;;5.22;4.72;;;28.10;58.00;;;;;;7686281;22;80736;-66
2022/08/05 15:30:51;;;;;;;8.07;4.97;;;28.10;58.20;;;;;;7685302;22;80280;-67
2022/08/05 15:33:52;;;;;;;8.95;5.25;;;28.10;58.30;;;;;;7686786;22;81208;-66
2022/08/05 15:36:52;;;;;;;8.48;5.32;;;28.10;58.40;;;;;;7687457;22;80275;-66
2022/08/05 15:39:55;;;;;;;10.45;5.32;;;28.00;58.10;;;;;;7687502;22;79958;-67